Time;durP1;ratioP1;P1;durP2;ratioP2;P2;SDS_P1;SDS_P2;PMS_P1;PMS_P2;Temp;Humidity;BMP_temperature;BMP_pressure;BME280_temperature;BME280_humidity;BME280_pressure;Samples;Min_cycle;Max_cycle;Signal;HPM_P1;HPM_P2
2022/03/19 00:01:12;;;;;;;8.00;2.92;;;;;;;5.26;78.13;103944.13;5050987;28;20055;-91
2022/03/19 00:03:40;;;;;;;9.73;4.00;;;;;;;5.23;78.73;103934.41;5047775;28;20849;-92
2022/03/19 00:06:09;;;;;;;10.30;3.58;;;;;;;5.24;78.77;103945.69;5048272;28;20053;-89
2022/03/19 00:08:38;;;;;;;8.82;4.18;;;;;;;5.20;78.96;103946.31;5044153;28;20728;-89
2022/03/19 00:11:06;;;;;;;5.72;3.33;;;;;;;5.17;79.44;103940.91;5049882;28;20083;-92
2022/03/19 00:13:33;;;;;;;7.05;3.00;;;;;;;5.16;79.51;103940.00;5048842;28;20474;-89
2022/03/19 00:16:01;;;;;;;11.38;4.10;;;;;;;5.12;79.83;103941.50;5035228;28;20045;-91
2022/03/19 00:18:29;;;;;;;11.45;4.22;;;;;;;5.09;79.85;103941.28;5038633;28;20063;-89
2022/03/19 00:20:56;;;;;;;8.93;4.30;;;;;;;5.06;81.03;103932.38;5048188;28;20071;-89
2022/03/19 00:23:23;;;;;;;11.80;3.60;;;;;;;5.06;81.31;103938.50;5029524;28;20056;-90
2022/03/19 00:25:49;;;;;;;9.05;4.70;;;;;;;5.06;81.27;103938.50;5040076;28;20472;-92
2022/03/19 00:28:18;;;;;;;5.28;3.92;;;;;;;5.00;81.30;103945.88;5055673;28;20710;-92
2022/03/19 00:33:32;;;;;;;11.93;4.82;;;;;;;4.86;82.18;103931.94;5070246;28;20525;-89
2022/03/19 00:36:00;;;;;;;9.30;4.55;;;;;;;4.77;82.42;103942.63;5043779;28;20059;-91
2022/03/19 00:38:26;;;;;;;14.65;4.57;;;;;;;4.77;83.30;103946.91;5044470;28;20055;-89
2022/03/19 00:40:54;;;;;;;13.38;5.18;;;;;;;4.73;83.31;103935.44;5036923;28;20517;-90
2022/03/19 00:43:26;;;;;;;12.05;4.43;;;;;;;4.69;84.08;103936.00;5059594;28;20102;-90
2022/03/19 00:45:53;;;;;;;12.55;5.03;;;;;;;4.67;84.95;103934.09;5045100;28;20044;-91
2022/03/19 00:48:19;;;;;;;8.32;4.47;;;;;;;4.63;84.71;103930.41;5045776;28;20051;-90
2022/03/19 00:50:46;;;;;;;11.27;5.00;;;;;;;4.59;85.06;103921.50;5062803;28;20079;-89
2022/03/19 00:58:36;;;;;;;9.27;4.38;;;;;;;4.40;85.92;103916.75;5072504;28;20048;-89
2022/03/19 01:01:03;;;;;;;44.15;21.75;;;;;;;4.33;86.92;103922.31;5033014;28;20037;-91
2022/03/19 01:03:30;;;;;;;8.75;4.45;;;;;;;4.27;87.08;103916.69;5057749;28;20075;-89
2022/03/19 01:05:56;;;;;;;8.82;4.78;;;;;;;4.23;88.53;103919.88;5031970;28;20047;-90
2022/03/19 01:08:23;;;;;;;8.13;4.65;;;;;;;4.20;88.24;103922.22;5043775;28;20033;-89
2022/03/19 01:10:51;;;;;;;14.02;3.72;;;;;;;4.16;88.14;103918.53;5033699;28;20065;-89
2022/03/19 01:13:18;;;;;;;8.07;4.68;;;;;;;4.16;89.42;103930.59;5066504;28;20052;-90
2022/03/19 01:15:45;;;;;;;19.30;3.70;;;;;;;4.16;88.27;103928.00;5077600;28;20041;-88
2022/03/19 01:18:13;;;;;;;8.32;3.92;;;;;;;4.13;88.15;103936.47;5031023;28;20044;-89
2022/03/19 01:20:41;;;;;;;12.50;5.13;;;;;;;4.08;88.98;103946.53;5036145;28;20076;-92
2022/03/19 01:23:08;;;;;;;10.52;4.47;;;;;;;4.04;88.92;103936.72;5030392;28;20052;-90
2022/03/19 01:28:15;;;;;;;13.95;3.90;;;;;;;3.97;89.00;103942.25;5050782;28;20036;-90
2022/03/19 01:30:42;;;;;;;15.57;4.50;;;;;;;3.94;88.84;103940.34;5044191;28;20048;-91
2022/03/19 01:33:11;;;;;;;6.38;2.97;;;;;;;3.91;89.10;103941.81;5041107;28;20048;-89
2022/03/19 01:35:41;;;;;;;8.15;3.83;;;;;;;3.88;89.36;103934.72;5060273;28;20724;-91
2022/03/19 01:38:09;;;;;;;15.25;4.90;;;;;;;3.85;90.29;103934.50;5051341;28;20725;-91
2022/03/19 01:40:38;;;;;;;10.90;4.22;;;;;;;3.85;89.68;103939.69;5052998;28;20040;-90
2022/03/19 01:43:07;;;;;;;7.90;4.95;;;;;;;3.80;89.15;103930.69;5039364;28;20099;-89
2022/03/19 01:45:41;;;;;;;12.10;5.05;;;;;;;3.75;90.36;103935.53;5061245;28;20154;-89
2022/03/19 01:48:08;;;;;;;15.95;5.35;;;;;;;3.73;90.69;103933.59;5055994;28;20040;-91
2022/03/19 01:50:35;;;;;;;14.15;4.05;;;;;;;3.74;90.63;103935.41;5062728;28;20067;-89
2022/03/19 01:53:02;;;;;;;14.40;4.15;;;;;;;3.75;90.67;103927.75;5064009;28;20123;-90
2022/03/19 01:58:10;;;;;;;7.53;3.70;;;;;;;3.73;91.01;103925.84;5064063;28;20056;-89
2022/03/19 02:00:38;;;;;;;11.88;4.63;;;;;;;3.74;90.64;103919.88;5065131;28;20044;-88
2022/03/19 02:03:10;;;;;;;8.43;4.45;;;;;;;3.71;90.87;103917.06;5055225;28;20078;-90
2022/03/19 02:05:37;;;;;;;10.77;4.93;;;;;;;3.66;90.95;103919.31;5065279;28;20147;-90
2022/03/19 02:08:04;;;;;;;12.43;4.50;;;;;;;3.65;91.75;103920.13;5077021;28;20040;-89
2022/03/19 02:10:34;;;;;;;14.35;5.63;;;;;;;3.65;92.57;103912.34;5079935;28;20070;-89
2022/03/19 02:13:02;;;;;;;14.68;5.78;;;;;;;3.61;92.39;103915.50;5074750;28;20043;-86
2022/03/19 02:15:29;;;;;;;13.85;5.68;;;;;;;3.63;93.21;103917.41;5083940;28;20103;-88
2022/03/19 02:17:56;;;;;;;12.27;4.68;;;;;;;3.62;93.13;103914.72;5072413;28;20090;-90
2022/03/19 02:20:22;;;;;;;12.10;4.75;;;;;;;3.58;93.20;103916.16;5068602;28;20142;-90
2022/03/19 02:25:37;;;;;;;17.23;5.95;;;;;;;3.55;94.19;103905.59;5067793;28;20055;-87
2022/03/19 02:28:05;;;;;;;14.15;5.22;;;;;;;3.52;93.79;103907.06;5057485;28;20036;-86
2022/03/19 02:30:32;;;;;;;16.63;6.00;;;;;;;3.52;94.25;103907.06;5046428;28;20051;-87
2022/03/19 02:33:00;;;;;;;15.68;4.95;;;;;;;3.50;94.30;103906.06;5067776;28;20172;-90
2022/03/19 02:35:33;;;;;;;13.52;4.85;;;;;;;3.47;94.42;103906.75;5048874;28;20129;-88
2022/03/19 02:38:01;;;;;;;13.82;5.38;;;;;;;3.46;94.74;103912.69;5063038;28;20062;-90
2022/03/19 02:40:28;;;;;;;17.27;6.55;;;;;;;3.41;94.43;103911.47;5052951;28;20158;-89
2022/03/19 02:42:57;;;;;;;11.90;6.50;;;;;;;3.37;95.36;103912.03;5076485;28;20044;-89
2022/03/19 02:45:26;;;;;;;15.63;5.90;;;;;;;3.33;95.47;103913.50;5058992;28;21394;-89
2022/03/19 02:47:58;;;;;;;19.27;5.55;;;;;;;3.26;95.70;103912.13;5066683;28;20044;-88
2022/03/19 02:50:30;;;;;;;15.57;5.40;;;;;;;3.20;95.38;103909.09;5038870;28;20056;-88
2022/03/19 02:52:59;;;;;;;12.43;4.75;;;;;;;3.11;95.48;103911.00;5071241;28;20139;-87
2022/03/19 02:55:33;;;;;;;17.20;7.20;;;;;;;3.04;95.58;103917.41;5052804;28;20056;-88
2022/03/19 02:58:06;;;;;;;11.13;4.70;;;;;;;2.97;96.12;103918.66;5059116;28;20063;-88
2022/03/19 03:00:33;;;;;;;9.70;3.88;;;;;;;2.93;96.80;103911.44;5048335;28;20059;-88
2022/03/19 03:03:02;;;;;;;13.55;5.25;;;;;;;2.90;96.73;103911.19;5032418;28;20048;-87
2022/03/19 03:05:28;;;;;;;15.05;5.45;;;;;;;2.87;96.81;103916.16;5063639;28;20040;-88
2022/03/19 03:07:55;;;;;;;12.77;4.90;;;;;;;2.83;97.00;103913.19;5056226;28;20051;-89
2022/03/19 03:10:22;;;;;;;17.50;5.40;;;;;;;2.78;97.15;103918.03;5066840;28;20538;-88
2022/03/19 03:12:48;;;;;;;10.05;4.25;;;;;;;2.75;97.76;103912.63;5063654;28;20246;-89
2022/03/19 03:15:15;;;;;;;14.32;4.95;;;;;;;2.70;98.05;103912.28;5083321;28;20048;-90
2022/03/19 03:17:44;;;;;;;15.07;5.60;;;;;;;2.68;98.17;103912.94;5081673;28;20098;-90
2022/03/19 03:20:12;;;;;;;14.88;4.22;;;;;;;2.71;98.75;103915.75;5064000;28;20139;-88
2022/03/19 03:22:44;;;;;;;19.27;5.07;;;;;;;2.70;98.85;103912.28;5051143;28;20155;-87
2022/03/19 03:25:11;;;;;;;15.48;5.72;;;;;;;2.64;98.17;103915.28;5053226;28;20077;-88
2022/03/19 03:27:38;;;;;;;12.45;4.55;;;;;;;2.57;97.49;103912.09;5037847;28;20068;-89
2022/03/19 03:30:06;;;;;;;10.18;5.05;;;;;;;2.54;99.26;103917.06;5070544;28;20129;-88
2022/03/19 03:32:33;;;;;;;16.75;5.57;;;;;;;2.53;99.32;103911.00;5078400;28;20063;-89
2022/03/19 03:34:59;;;;;;;12.93;4.57;;;;;;;2.51;99.14;103912.56;5037871;28;20695;-89
2022/03/19 03:37:27;;;;;;;14.05;7.30;;;;;;;2.48;98.84;103912.34;5060142;28;20048;-87
2022/03/19 03:39:53;;;;;;;14.48;4.88;;;;;;;2.48;100.00;103908.03;5065656;28;20073;-88
2022/03/19 03:45:31;;;;;;;13.18;5.22;;;;;;;2.44;99.10;103911.19;5102607;22;20051;-82
2022/03/19 03:47:58;;;;;;;16.08;5.97;;;;;;;2.43;100.00;103903.31;5084868;28;20047;-81
2022/03/19 03:50:24;;;;;;;15.27;5.22;;;;;;;2.42;100.00;103904.97;5069498;28;20056;-81
2022/03/19 03:52:51;;;;;;;13.52;6.55;;;;;;;2.44;100.00;103894.78;5058321;28;20051;-81
2022/03/19 03:55:18;;;;;;;15.05;7.18;;;;;;;2.43;100.00;103904.19;5067992;28;20146;-83
2022/03/19 03:57:44;;;;;;;11.48;6.50;;;;;;;2.40;100.00;103906.56;5067523;28;20059;-83
2022/03/19 04:00:11;;;;;;;14.68;7.55;;;;;;;2.38;100.00;103905.53;5068586;28;20438;-81
2022/03/19 04:02:38;;;;;;;10.02;5.68;;;;;;;2.34;100.00;103900.91;5071523;28;20107;-82
2022/03/19 04:05:07;;;;;;;40.75;8.50;;;;;;;2.34;100.00;103906.09;5082117;28;20445;-83
2022/03/19 04:07:34;;;;;;;18.02;8.45;;;;;;;2.33;100.00;103901.69;5069404;28;20047;-85
2022/03/19 04:10:00;;;;;;;16.40;7.00;;;;;;;2.27;100.00;103907.28;5081309;28;20051;-81
2022/03/19 04:12:27;;;;;;;16.35;6.03;;;;;;;2.27;100.00;103907.28;5062860;28;20055;-81
2022/03/19 04:14:54;;;;;;;14.27;5.93;;;;;;;2.24;100.00;103907.06;5066725;28;20040;-82
2022/03/19 04:17:20;;;;;;;18.35;5.72;;;;;;;2.22;100.00;103913.78;5070260;28;20492;-83
2022/03/19 04:19:47;;;;;;;15.68;5.03;;;;;;;2.18;100.00;103903.06;5082715;28;20036;-84
2022/03/19 04:22:13;;;;;;;21.80;6.43;;;;;;;2.17;100.00;103914.22;5085338;28;20054;-81
2022/03/19 04:24:40;;;;;;;13.57;5.38;;;;;;;2.14;100.00;103909.72;5083430;28;20044;-82
2022/03/19 04:27:07;;;;;;;10.95;5.68;;;;;;;2.11;100.00;103909.47;5075610;28;20048;-79
2022/03/19 04:29:34;;;;;;;13.45;5.57;;;;;;;2.07;100.00;103912.59;5064791;28;20055;-84
2022/03/19 04:32:00;;;;;;;19.35;7.07;;;;;;;2.04;100.00;103914.94;5064179;28;20471;-83
2022/03/19 04:34:27;;;;;;;14.70;4.65;;;;;;;2.04;100.00;103913.25;5076929;28;20056;-83
2022/03/19 04:36:54;;;;;;;14.45;7.03;;;;;;;2.03;100.00;103911.44;5062583;28;20062;-82
2022/03/19 04:39:20;;;;;;;13.75;6.93;;;;;;;2.00;100.00;103902.56;5061675;28;20144;-83
2022/03/19 04:41:47;;;;;;;21.25;9.13;;;;;;;2.01;100.00;103904.34;5046758;28;20150;-87
2022/03/19 04:44:16;;;;;;;25.25;5.85;;;;;;;1.97;100.00;103905.81;5087569;28;20067;-83
2022/03/19 04:46:43;;;;;;;36.80;7.03;;;;;;;1.95;100.00;103905.66;5075315;28;20060;-84
2022/03/19 04:49:10;;;;;;;13.18;4.93;;;;;;;1.95;100.00;103909.94;5050040;28;20056;-82
2022/03/19 04:51:39;;;;;;;19.70;5.90;;;;;;;1.92;100.00;103904.53;5048051;28;20052;-83
2022/03/19 04:54:09;;;;;;;16.38;7.30;;;;;;;1.89;100.00;103896.53;5074048;28;20110;-84
2022/03/19 04:56:35;;;;;;;16.45;5.60;;;;;;;1.85;100.00;103902.25;5061513;28;20059;-83
2022/03/19 04:59:04;;;;;;;10.60;5.00;;;;;;;1.77;100.00;103907.72;5062841;28;20044;-83
2022/03/19 05:01:33;;;;;;;15.00;5.47;;;;;;;1.73;100.00;103908.22;5064507;28;20044;-83
2022/03/19 05:04:01;;;;;;;14.90;5.43;;;;;;;1.69;100.00;103906.19;5045998;28;20687;-85
2022/03/19 05:06:27;;;;;;;18.50;6.65;;;;;;;1.69;100.00;103906.19;5040851;28;20058;-83
2022/03/19 05:11:35;;;;;;;12.13;6.68;;;;;;;1.69;100.00;103905.28;5063100;28;20048;-84
2022/03/19 05:14:01;;;;;;;14.00;5.40;;;;;;;1.67;100.00;103909.41;5041141;28;20279;-82
2022/03/19 05:16:28;;;;;;;19.25;5.22;;;;;;;1.64;100.00;103911.00;5047070;28;20055;-83
2022/03/19 05:18:54;;;;;;;15.63;5.03;;;;;;;1.64;100.00;103915.22;5079412;28;20031;-85
2022/03/19 05:21:21;;;;;;;9.98;5.05;;;;;;;1.61;100.00;103907.25;5055510;28;20048;-83
2022/03/19 05:23:47;;;;;;;17.67;6.63;;;;;;;1.60;100.00;103915.78;5067517;28;20048;-82
2022/03/19 05:26:14;;;;;;;10.80;5.28;;;;;;;1.53;100.00;103906.63;5038609;28;20129;-85
2022/03/19 05:28:41;;;;;;;18.70;5.25;;;;;;;1.52;100.00;103911.69;5045761;28;20044;-83
2022/03/19 05:31:09;;;;;;;14.95;5.07;;;;;;;1.47;100.00;103912.22;5060542;28;20437;-83
2022/03/19 05:36:21;;;;;;;14.60;5.75;;;;;;;1.43;100.00;103904.97;5064885;28;20077;-83
2022/03/19 05:38:48;;;;;;;10.77;6.18;;;;;;;1.43;100.00;103910.13;5043281;28;20040;-84
2022/03/19 05:41:14;;;;;;;14.68;6.15;;;;;;;1.45;100.00;103905.13;5063346;28;20055;-86
2022/03/19 05:43:41;;;;;;;18.30;6.05;;;;;;;1.46;100.00;103909.47;5051508;28;20040;-83
2022/03/19 05:46:07;;;;;;;18.17;6.80;;;;;;;1.49;100.00;103913.22;5051162;28;20056;-83
2022/03/19 05:48:34;;;;;;;15.18;5.93;;;;;;;1.51;100.00;103903.00;5069797;28;20036;-81
2022/03/19 05:51:01;;;;;;;20.00;6.07;;;;;;;1.49;100.00;103909.75;5062044;28;20048;-83
2022/03/19 05:53:28;;;;;;;25.70;6.82;;;;;;;1.49;100.00;103909.75;5048207;28;20044;-82
2022/03/19 05:55:56;;;;;;;12.80;6.05;;;;;;;1.52;100.00;103907.41;5061195;28;20056;-82
2022/03/19 05:58:26;;;;;;;13.18;5.93;;;;;;;1.52;100.00;103902.25;5051498;28;20056;-82
2022/03/19 06:00:53;;;;;;;13.55;6.25;;;;;;;1.54;100.00;103900.69;5053037;28;20067;-85
2022/03/19 06:03:19;;;;;;;15.43;6.05;;;;;;;1.57;100.00;103903.50;5045635;28;20051;-82
2022/03/19 06:05:46;;;;;;;18.85;7.32;;;;;;;1.61;100.00;103902.09;5029878;28;20043;-85
2022/03/19 06:08:12;;;;;;;19.35;6.05;;;;;;;1.63;100.00;103900.50;5044554;28;20055;-83
2022/03/19 06:10:39;;;;;;;16.70;6.07;;;;;;;1.61;100.00;103899.50;5043962;28;20380;-83
2022/03/19 06:13:05;;;;;;;16.42;6.05;;;;;;;1.63;100.00;103896.28;5060819;28;20044;-84
2022/03/19 06:15:32;;;;;;;22.77;8.15;;;;;;;1.67;100.00;103896.50;5049475;28;20403;-83
2022/03/19 06:17:58;;;;;;;20.92;7.57;;;;;;;1.68;100.00;103896.63;5066200;28;20044;-83
2022/03/19 06:20:25;;;;;;;15.30;5.38;;;;;;;1.74;100.00;103898.81;5045465;28;20397;-83
2022/03/19 06:22:52;;;;;;;18.00;5.75;;;;;;;1.80;100.00;103899.31;5057736;28;20047;-83
2022/03/19 06:25:18;;;;;;;17.33;5.30;;;;;;;1.91;100.00;103898.44;5043169;28;20089;-84
2022/03/19 06:27:45;;;;;;;13.32;6.07;;;;;;;2.07;100.00;103889.31;5049630;28;20048;-84
2022/03/19 06:30:12;;;;;;;13.93;5.47;;;;;;;2.22;100.00;103881.88;5060916;28;20047;-86
2022/03/19 06:32:41;;;;;;;13.00;5.10;;;;;;;2.35;100.00;103888.88;5047732;28;20052;-85
2022/03/19 06:35:10;;;;;;;20.77;5.85;;;;;;;2.62;100.00;103887.50;5046837;28;20039;-83
2022/03/19 06:37:35;;;;;;;15.95;5.00;;;;;;;2.99;100.00;103877.34;5044722;28;20118;-83
2022/03/19 06:40:06;;;;;;;14.73;5.28;;;;;;;3.37;100.00;103880.97;5063794;28;20052;-83
2022/03/19 06:42:35;;;;;;;14.63;5.55;;;;;;;3.77;98.22;103884.72;5064461;28;20055;-83
2022/03/19 06:45:01;;;;;;;13.55;5.20;;;;;;;4.10;94.97;103887.00;5048919;28;20048;-82
2022/03/19 06:47:28;;;;;;;14.05;5.45;;;;;;;4.43;93.27;103883.25;5044763;28;20036;-85
2022/03/19 06:49:54;;;;;;;22.90;6.70;;;;;;;4.75;90.59;103883.63;5053949;28;20052;-82
2022/03/19 06:52:22;;;;;;;11.93;4.22;;;;;;;5.05;88.02;103887.34;5046125;28;20047;-84
2022/03/19 06:54:49;;;;;;;9.93;5.10;;;;;;;5.34;87.38;103877.97;5062161;28;20048;-85
2022/03/19 06:57:16;;;;;;;10.85;4.28;;;;;;;5.61;82.63;103881.44;5045123;28;20048;-81
2022/03/19 06:59:42;;;;;;;18.17;5.15;;;;;;;5.84;82.13;103871.59;5048704;28;20342;-85
2022/03/19 07:02:09;;;;;;;10.75;4.47;;;;;;;6.13;80.06;103870.81;5068632;28;20042;-83
2022/03/19 07:04:35;;;;;;;10.00;4.28;;;;;;;6.41;78.09;103869.91;5061749;28;20044;-85
2022/03/19 07:07:02;;;;;;;10.27;4.45;;;;;;;6.72;77.29;103869.13;5045272;28;20048;-81
2022/03/19 07:09:29;;;;;;;19.00;5.80;;;;;;;6.91;72.66;103868.50;5058957;28;20477;-84
2022/03/19 07:11:55;;;;;;;13.02;3.97;;;;;;;7.06;72.84;103852.84;5062272;28;20052;-83
2022/03/19 07:14:22;;;;;;;15.95;4.63;;;;;;;7.27;71.05;103863.59;5061744;28;20048;-83
2022/03/19 07:16:49;;;;;;;7.13;4.20;;;;;;;7.45;70.26;103857.63;5035233;28;20050;-84
2022/03/19 07:19:16;;;;;;;6.07;3.42;;;;;;;7.70;67.89;103864.19;5061399;28;20044;-84
2022/03/19 07:21:42;;;;;;;7.30;3.55;;;;;;;7.92;67.23;103858.41;5046500;28;20468;-83
2022/03/19 07:24:09;;;;;;;12.88;4.80;;;;;;;8.13;66.28;103861.25;5039686;28;20041;-82
2022/03/19 07:26:38;;;;;;;16.58;4.35;;;;;;;8.30;64.83;103863.88;5061760;28;20052;-82
2022/03/19 07:29:05;;;;;;;12.30;4.40;;;;;;;8.48;64.00;103866.59;5055944;28;20048;-82
2022/03/19 07:31:32;;;;;;;10.65;3.70;;;;;;;8.57;60.88;103865.31;5063385;28;20055;-81
2022/03/19 07:33:59;;;;;;;9.63;3.35;;;;;;;8.57;61.58;103867.94;5048849;28;20093;-82
2022/03/19 07:36:27;;;;;;;16.52;4.70;;;;;;;8.72;60.53;103870.44;5062941;28;20383;-84
2022/03/19 07:38:56;;;;;;;15.23;4.55;;;;;;;8.74;60.18;103867.91;5048790;28;20970;-86
2022/03/19 07:44:07;;;;;;;8.30;3.28;;;;;;;9.10;59.39;103858.38;5081904;28;20044;-84
2022/03/19 07:46:37;;;;;;;13.15;4.07;;;;;;;9.37;58.66;103855.31;5082727;28;20071;-83
2022/03/19 07:49:04;;;;;;;8.80;3.42;;;;;;;9.74;57.41;103857.03;5048429;28;20044;-84
2022/03/19 07:51:30;;;;;;;12.60;3.55;;;;;;;10.04;55.57;103858.38;5061833;28;20052;-82
2022/03/19 07:53:57;;;;;;;11.43;3.35;;;;;;;10.18;54.48;103854.63;5061550;28;20040;-83
2022/03/19 07:56:25;;;;;;;11.38;3.85;;;;;;;10.40;53.41;103851.25;5057788;28;20044;-84
2022/03/19 07:58:52;;;;;;;12.57;3.30;;;;;;;10.50;51.83;103849.91;5058802;28;20040;-85
2022/03/19 08:01:21;;;;;;;8.98;3.85;;;;;;;10.58;52.58;103843.28;5057101;28;20159;-83
2022/03/19 08:03:48;;;;;;;6.18;2.72;;;;;;;10.85;51.98;103842.66;5053614;28;20050;-84
2022/03/19 08:06:15;;;;;;;10.57;2.88;;;;;;;11.01;50.75;103835.41;5059625;28;20054;-84
2022/03/19 08:08:41;;;;;;;14.18;3.00;;;;;;;11.28;50.45;103847.81;5046325;28;20219;-83
2022/03/19 08:11:08;;;;;;;10.57;3.05;;;;;;;11.01;50.61;103840.66;5044245;28;20135;-85
2022/03/19 08:13:34;;;;;;;6.80;3.13;;;;;;;10.36;52.38;103840.56;5063895;28;20063;-84
2022/03/19 08:16:01;;;;;;;7.97;3.15;;;;;;;10.06;52.36;103840.97;5060570;28;20045;-85
2022/03/19 08:18:29;;;;;;;8.30;3.63;;;;;;;10.54;52.24;103837.84;5050433;28;20047;-83
2022/03/19 08:20:56;;;;;;;7.30;2.83;;;;;;;11.25;50.73;103838.09;5048954;28;20052;-84
2022/03/19 08:23:23;;;;;;;8.80;3.35;;;;;;;11.78;47.98;103830.50;5067975;28;20597;-83
2022/03/19 08:25:49;;;;;;;5.30;2.70;;;;;;;12.28;46.56;103834.94;5048330;28;20054;-83
2022/03/19 08:28:16;;;;;;;9.95;2.60;;;;;;;12.52;45.90;103833.16;5046896;28;20058;-83
2022/03/19 08:30:42;;;;;;;6.85;2.67;;;;;;;13.03;45.78;103823.41;5074501;28;20410;-83
2022/03/19 08:33:09;;;;;;;6.35;3.13;;;;;;;13.78;44.68;103829.19;5069152;28;20040;-83
2022/03/19 08:35:36;;;;;;;7.13;2.78;;;;;;;14.39;42.88;103824.69;5082979;28;20050;-83
2022/03/19 08:40:46;;;;;;;9.48;3.17;;;;;;;14.26;41.77;103833.13;5070504;28;20028;-83
2022/03/19 08:43:13;;;;;;;6.38;2.70;;;;;;;14.22;41.49;103835.72;5066895;28;20046;-82
2022/03/19 08:45:39;;;;;;;8.93;2.95;;;;;;;14.30;40.62;103835.00;5062277;28;20056;-84
2022/03/19 08:48:06;;;;;;;5.53;3.40;;;;;;;14.37;40.79;103829.06;5047413;28;20057;-83
2022/03/19 08:50:32;;;;;;;8.85;3.38;;;;;;;14.75;40.57;103818.63;5051045;28;20091;-82
2022/03/19 08:52:59;;;;;;;6.53;2.90;;;;;;;15.16;39.80;103825.72;5042720;28;20058;-85
2022/03/19 08:55:25;;;;;;;6.05;2.88;;;;;;;15.39;38.69;103818.31;5027573;28;20059;-83
2022/03/19 08:57:52;;;;;;;9.77;3.20;;;;;;;15.15;38.34;103819.56;5040543;28;20047;-83
2022/03/19 09:00:22;;;;;;;6.65;3.03;;;;;;;15.21;38.64;103816.16;5027086;28;20499;-83
2022/03/19 09:02:49;;;;;;;7.38;2.33;;;;;;;15.46;38.26;103816.69;5047384;28;20116;-83
2022/03/19 09:05:16;;;;;;;5.50;2.30;;;;;;;15.77;37.76;103819.97;5022254;28;20056;-84
2022/03/19 09:07:42;;;;;;;6.90;2.80;;;;;;;15.77;37.02;103822.63;5040516;28;20052;-83
2022/03/19 09:10:09;;;;;;;6.70;2.67;;;;;;;15.95;36.43;103830.06;5033192;28;20167;-83
2022/03/19 09:12:38;;;;;;;5.22;2.42;;;;;;;16.11;35.85;103823.28;5028422;28;20040;-84
2022/03/19 09:15:10;;;;;;;7.35;1.77;;;;;;;16.00;36.52;103817.81;5027069;28;20054;-83
2022/03/19 09:17:37;;;;;;;6.80;2.47;;;;;;;16.30;36.52;103811.31;5046501;28;20040;-82
2022/03/19 09:20:06;;;;;;;6.93;2.67;;;;;;;16.35;36.44;103812.28;5046517;28;20197;-82
2022/03/19 09:22:32;;;;;;;14.32;3.22;;;;;;;15.50;37.52;103803.59;5040776;28;20056;-85
2022/03/19 09:24:59;;;;;;;12.55;2.70;;;;;;;14.54;38.93;103805.75;5035011;28;20171;-83
2022/03/19 09:27:26;;;;;;;6.43;1.80;;;;;;;13.41;40.55;103800.06;5043462;28;20044;-87
2022/03/19 09:29:53;;;;;;;24.67;3.05;;;;;;;12.43;42.48;103797.81;5040832;28;20148;-86
2022/03/19 09:32:20;;;;;;;4.95;2.17;;;;;;;11.51;44.06;103806.75;5035763;28;20056;-84
2022/03/19 09:34:49;;;;;;;5.47;1.75;;;;;;;10.91;45.43;103794.81;5053746;28;20037;-83
2022/03/19 09:37:19;;;;;;;5.80;2.13;;;;;;;10.45;46.22;103795.56;5033891;28;20082;-84
2022/03/19 09:39:45;;;;;;;12.77;2.45;;;;;;;9.96;47.30;103805.69;5034667;28;20056;-82
2022/03/19 09:42:14;;;;;;;5.90;1.83;;;;;;;9.53;48.53;103802.00;5046760;28;20056;-84
2022/03/19 09:44:43;;;;;;;12.65;2.55;;;;;;;9.29;48.69;103790.41;5036349;28;20403;-84
2022/03/19 09:47:10;;;;;;;4.60;1.63;;;;;;;9.16;48.98;103797.66;5069335;28;20125;-82
2022/03/19 09:49:37;;;;;;;6.53;1.40;;;;;;;9.47;48.79;103791.25;5048879;28;20109;-83
2022/03/19 09:52:04;;;;;;;5.93;1.88;;;;;;;10.64;45.75;103779.78;5048595;28;20078;-85
2022/03/19 09:54:31;;;;;;;4.38;1.35;;;;;;;12.28;42.40;103790.28;5063462;28;20048;-84
2022/03/19 09:56:58;;;;;;;4.80;2.58;;;;;;;13.75;40.09;103779.97;5061285;28;20091;-84
2022/03/19 09:59:26;;;;;;;6.15;1.77;;;;;;;14.92;37.63;103770.66;5045267;28;20470;-83
2022/03/19 10:01:53;;;;;;;3.88;1.20;;;;;;;15.77;35.90;103767.16;5054117;28;21663;-82
2022/03/19 10:04:20;;;;;;;3.28;1.30;;;;;;;16.63;35.07;103754.56;5059190;28;20060;-84
2022/03/19 10:09:46;;;;;;;3.60;1.42;;;;;;;17.39;32.79;103755.63;5052073;28;20125;-85
2022/03/19 10:12:22;;;;;;;17.50;2.22;;;;;;;17.92;31.44;103751.78;5049051;28;20052;-84
2022/03/19 10:14:57;;;;;;;5.18;2.05;;;;;;;18.17;30.91;103737.91;5068126;28;20043;-84
2022/03/19 10:17:35;;;;;;;4.18;1.58;;;;;;;18.42;30.19;103740.78;5068510;28;20063;-83
2022/03/19 10:20:12;;;;;;;3.33;1.63;;;;;;;18.82;29.86;103735.69;5069848;28;20040;-84
2022/03/19 10:22:45;;;;;;;7.55;2.20;;;;;;;19.41;29.81;103727.13;5084383;28;20143;-83
2022/03/19 10:25:17;;;;;;;6.68;2.03;;;;;;;19.64;28.85;103729.84;5050583;28;20138;-84
2022/03/19 10:27:46;;;;;;;4.90;1.57;;;;;;;20.27;28.52;103723.72;5044618;28;20063;-84
2022/03/19 10:30:16;;;;;;;3.80;1.40;;;;;;;20.64;27.65;103723.69;5069273;28;20300;-83
2022/03/19 10:32:48;;;;;;;8.77;1.55;;;;;;;20.81;27.30;103719.22;5066855;28;20104;-86
2022/03/19 10:35:33;;;;;;;3.55;1.17;;;;;;;20.81;26.38;103711.22;5070927;28;20079;-83
2022/03/19 10:38:20;;;;;;;5.85;1.52;;;;;;;21.04;26.56;103720.03;5065085;28;20048;-84
2022/03/19 10:40:53;;;;;;;4.22;1.35;;;;;;;20.63;26.60;103706.81;5048638;28;20041;-82
2022/03/19 10:43:23;;;;;;;;;;;;;;;20.10;25.99;103711.34;5039486;28;20099;-82
2022/03/19 10:45:53;;;;;;;3.53;1.17;;;;;;;19.93;26.96;103706.03;5060565;28;19928;-83
2022/03/19 10:48:26;;;;;;;5.80;1.23;;;;;;;20.08;26.38;103698.94;5082128;28;20073;-83
2022/03/19 10:50:54;;;;;;;2.60;1.35;;;;;;;20.56;26.46;103690.84;5047676;28;20040;-83
2022/03/19 10:53:22;;;;;;;5.57;1.63;;;;;;;20.81;26.11;103689.06;5050806;28;20135;-85
2022/03/19 10:55:49;;;;;;;4.00;1.80;;;;;;;21.18;25.79;103686.22;5067043;28;20482;-82
2022/03/19 10:58:16;;;;;;;3.28;2.00;;;;;;;21.74;25.39;103683.22;5045835;28;20075;-82
2022/03/19 11:00:44;;;;;;;4.03;1.67;;;;;;;21.94;24.61;103685.72;5066591;28;20041;-82
2022/03/19 11:03:20;;;;;;;3.20;1.13;;;;;;;21.88;24.18;103683.13;5053255;28;20056;-84
2022/03/19 11:05:57;;;;;;;3.45;1.23;;;;;;;21.51;24.77;103670.94;5050894;28;20059;-85
2022/03/19 11:08:25;;;;;;;4.32;2.00;;;;;;;21.67;25.22;103658.41;5044527;28;20700;-83
2022/03/19 11:10:54;;;;;;;4.75;1.60;;;;;;;21.88;24.76;103664.44;5060460;28;20050;-82
2022/03/19 11:13:22;;;;;;;5.25;1.38;;;;;;;22.31;24.18;103656.03;5051744;28;20075;-83
2022/03/19 11:15:54;;;;;;;4.70;1.52;;;;;;;22.46;23.63;103663.91;5053075;28;20434;-82
2022/03/19 11:18:22;;;;;;;4.13;1.15;;;;;;;22.27;23.79;103646.28;5045554;28;20386;-83
2022/03/19 11:20:50;;;;;;;4.90;1.77;;;;;;;22.07;24.36;103649.16;5047198;28;20048;-82
2022/03/19 11:23:30;;;;;;;2.10;1.10;;;;;;;21.95;24.27;103645.72;5069145;28;20040;-83
2022/03/19 11:25:58;;;;;;;5.72;1.20;;;;;;;22.33;24.25;103637.31;5047074;28;20453;-84
2022/03/19 11:28:31;;;;;;;2.08;1.05;;;;;;;21.44;24.12;103638.06;5036004;28;20170;-83
2022/03/19 11:31:04;;;;;;;3.60;1.42;;;;;;;21.14;24.34;103626.72;5068898;28;20037;-85
2022/03/19 11:33:35;;;;;;;;;;;;;;;21.55;23.96;103630.06;5054649;28;20043;-83
2022/03/19 11:36:09;;;;;;;4.43;1.90;;;;;;;21.82;23.29;103628.03;5070108;28;19924;-83
2022/03/19 11:38:54;;;;;;;3.42;0.80;;;;;;;19.77;25.13;103627.09;5070685;28;20127;-83
2022/03/19 11:41:29;;;;;;;6.13;1.58;;;;;;;18.34;27.02;103624.03;5050754;28;20055;-84
2022/03/19 11:44:28;;;;;;;4.85;0.90;;;;;;;18.27;27.28;103611.59;5064268;28;20063;-84
2022/03/19 11:47:00;;;;;;;6.95;1.50;;;;;;;18.86;26.86;103614.50;5071934;28;20049;-84
2022/03/19 11:49:49;;;;;;;1.77;1.02;;;;;;;19.54;25.52;103604.06;5067136;28;20076;-86
2022/03/19 11:52:29;;;;;;;3.25;0.80;;;;;;;20.39;24.89;103593.34;5067401;28;20055;-83
2022/03/19 11:55:19;;;;;;;2.42;0.77;;;;;;;21.58;23.92;103579.38;5070470;28;20108;-83
2022/03/19 11:58:00;;;;;;;2.50;0.75;;;;;;;23.06;22.42;103574.09;5053876;28;20040;-82
2022/03/19 12:00:32;;;;;;;3.80;1.63;;;;;;;24.09;21.60;103575.94;5039609;28;20048;-83
2022/03/19 12:03:08;;;;;;;1.80;1.10;;;;;;;22.04;22.92;103575.38;5052010;28;20606;-83